Time;durP1;ratioP1;P1;durP2;ratioP2;P2;SDS_P1;SDS_P2;PMS_P1;PMS_P2;Temp;Humidity;BMP_temperature;BMP_pressure;BME280_temperature;BME280_humidity;BME280_pressure;Samples;Min_cycle;Max_cycle;Signal;HPM_P1;HPM_P2
2024/02/19 00:02:51;;;;;;;2.45;1.55;;;;;;;;;;12534828;23;20094;-82
2024/02/19 00:07:54;;;;;;;2.90;1.98;;;;;;;;;;12534695;23;20023;-86
2024/02/19 00:12:58;;;;;;;2.13;1.77;;;;;;;;;;12536142;23;20088;-84
2024/02/19 00:18:02;;;;;;;3.50;1.75;;;;;;;;;;12533999;23;20399;-87
2024/02/19 00:23:06;;;;;;;4.55;1.75;;;;;;;;;;12558307;23;20029;-83
2024/02/19 00:28:11;;;;;;;3.05;1.85;;;;;;;;;;12559484;23;20026;-82
2024/02/19 00:33:16;;;;;;;2.42;1.73;;;;;;;;;;12537822;23;20023;-86
2024/02/19 00:38:19;;;;;;;3.25;1.90;;;;;;;;;;12533912;23;20047;-85
2024/02/19 00:43:22;;;;;;;2.80;1.88;;;;;;;;;;12535880;23;20058;-83
2024/02/19 00:48:27;;;;;;;2.30;2.03;;;;;;;;;;12534368;23;20034;-82
2024/02/19 00:53:31;;;;;;;3.95;1.92;;;;;;;;;;12556606;23;20027;-84
2024/02/19 00:58:34;;;;;;;3.30;1.90;;;;;;;;;;12554052;23;20018;-85
2024/02/19 01:03:39;;;;;;;3.08;1.88;;;;;;;;;;12549585;23;20022;-82
2024/02/19 01:08:42;;;;;;;3.70;1.92;;;;;;;;;;12549373;23;20026;-86
2024/02/19 01:13:45;;;;;;;2.20;1.50;;;;;;;;;;12530209;23;20050;-86
2024/02/19 01:18:51;;;;;;;10.60;2.22;;;;;;;;;;12528932;23;20030;-83
2024/02/19 01:23:55;;;;;;;4.38;1.63;;;;;;;;;;12544616;23;20229;-83
2024/02/19 01:28:58;;;;;;;3.17;1.63;;;;;;;;;;12531314;23;20034;-83
2024/02/19 01:34:04;;;;;;;4.63;1.40;;;;;;;;;;12551528;23;20026;-83
2024/02/19 01:39:07;;;;;;;4.40;1.20;;;;;;;;;;12546109;23;20034;-82
2024/02/19 01:44:11;;;;;;;5.07;1.50;;;;;;;;;;12537838;23;20030;-85
2024/02/19 01:49:16;;;;;;;2.53;1.08;;;;;;;;;;12549949;23;20027;-86
2024/02/19 01:54:19;;;;;;;2.47;0.90;;;;;;;;;;12559840;23;20436;-86
2024/02/19 01:59:24;;;;;;;4.18;1.30;;;;;;;;;;12533204;23;20051;-81
2024/02/19 02:04:29;;;;;;;4.82;1.00;;;;;;;;;;12528166;23;20037;-84
2024/02/19 02:09:33;;;;;;;3.72;1.27;;;;;;;;;;12531812;23;20034;-83
2024/02/19 02:14:36;;;;;;;1.55;0.80;;;;;;;;;;12532693;23;20031;-86
2024/02/19 02:19:42;;;;;;;1.65;0.68;;;;;;;;;;12531865;23;20043;-83
2024/02/19 02:24:45;;;;;;;1.05;0.63;;;;;;;;;;12534678;23;20608;-86
2024/02/19 02:29:50;;;;;;;2.67;1.02;;;;;;;;;;12532892;23;20027;-83
2024/02/19 02:34:53;;;;;;;2.95;0.70;;;;;;;;;;12535573;23;20054;-83
2024/02/19 02:39:56;;;;;;;1.92;0.90;;;;;;;;;;12533766;23;20034;-83
2024/02/19 02:45:01;;;;;;;1.48;0.80;;;;;;;;;;12533875;23;20086;-82
2024/02/19 02:50:05;;;;;;;2.50;0.90;;;;;;;;;;12533264;23;20030;-87
2024/02/19 02:55:09;;;;;;;3.33;1.35;;;;;;;;;;12535242;23;20086;-82
2024/02/19 03:00:15;;;;;;;3.95;1.10;;;;;;;;;;12525751;23;20030;-83
2024/02/19 03:05:18;;;;;;;3.90;1.10;;;;;;;;;;12536546;23;20354;-83
2024/02/19 03:10:22;;;;;;;3.92;1.45;;;;;;;;;;12548927;23;21087;-82
2024/02/19 03:15:26;;;;;;;4.18;1.40;;;;;;;;;;12545804;23;20063;-86
2024/02/19 03:20:30;;;;;;;2.50;1.08;;;;;;;;;;12533923;23;20030;-82
2024/02/19 03:25:33;;;;;;;5.97;1.45;;;;;;;;;;12545751;23;20027;-84
2024/02/19 03:30:38;;;;;;;6.22;1.65;;;;;;;;;;12531640;23;20026;-84
2024/02/19 03:35:41;;;;;;;4.18;1.20;;;;;;;;;;12534497;23;20069;-86
2024/02/19 03:40:45;;;;;;;5.80;1.40;;;;;;;;;;12559798;23;20114;-87
2024/02/19 03:45:50;;;;;;;3.38;1.08;;;;;;;;;;12534326;23;20031;-87
2024/02/19 03:50:53;;;;;;;6.30;1.50;;;;;;;;;;12537173;23;20031;-82
2024/02/19 03:55:58;;;;;;;3.42;1.45;;;;;;;;;;12534809;23;20082;-87
2024/02/19 04:01:03;;;;;;;3.25;1.13;;;;;;;;;;12542063;23;20034;-85
2024/02/19 04:06:07;;;;;;;4.80;0.85;;;;;;;;;;12534973;23;20031;-83
2024/02/19 04:11:13;;;;;;;2.40;0.98;;;;;;;;;;12533610;23;20586;-82
2024/02/19 04:16:18;;;;;;;7.50;1.40;;;;;;;;;;12525296;23;20174;-80
2024/02/19 04:21:21;;;;;;;5.20;0.93;;;;;;;;;;12527746;23;20081;-82
2024/02/19 04:26:24;;;;;;;6.07;1.23;;;;;;;;;;12529074;23;20273;-82
2024/02/19 04:31:29;;;;;;;5.72;1.42;;;;;;;;;;12529919;23;20026;-81
2024/02/19 04:36:33;;;;;;;5.20;1.25;;;;;;;;;;12526971;23;20058;-81
2024/02/19 04:41:36;;;;;;;3.53;1.15;;;;;;;;;;12525913;23;20053;-80
2024/02/19 04:46:41;;;;;;;6.93;1.38;;;;;;;;;;12526549;23;20057;-80
2024/02/19 04:51:44;;;;;;;5.78;1.90;;;;;;;;;;12548384;23;20061;-80
2024/02/19 04:56:47;;;;;;;3.90;1.27;;;;;;;;;;12548162;23;20090;-81
2024/02/19 05:01:53;;;;;;;5.07;1.50;;;;;;;;;;12520281;23;20573;-80
2024/02/19 05:06:57;;;;;;;5.82;2.10;;;;;;;;;;12522988;23;20085;-81
2024/02/19 05:12:00;;;;;;;7.40;1.92;;;;;;;;;;12528955;23;20462;-74
2024/02/19 05:17:05;;;;;;;10.57;2.50;;;;;;;;;;12484302;23;20507;-73
2024/02/19 05:22:08;;;;;;;10.40;1.95;;;;;;;;;;12483871;23;20031;-74
2024/02/19 05:27:12;;;;;;;4.75;1.35;;;;;;;;;;12484401;23;20031;-74
2024/02/19 05:32:16;;;;;;;5.93;2.00;;;;;;;;;;12483170;23;20078;-73
2024/02/19 05:37:21;;;;;;;5.30;1.52;;;;;;;;;;12481418;23;20059;-74
2024/02/19 05:42:24;;;;;;;6.90;1.65;;;;;;;;;;12484002;23;20071;-74
2024/02/19 05:47:31;;;;;;;6.32;1.70;;;;;;;;;;12479862;23;20023;-74
2024/02/19 05:52:34;;;;;;;5.68;1.55;;;;;;;;;;12481988;23;20023;-74
2024/02/19 05:57:38;;;;;;;5.32;1.35;;;;;;;;;;12480699;23;20027;-74
2024/02/19 06:02:43;;;;;;;6.88;1.83;;;;;;;;;;12479962;23;20086;-74
2024/02/19 06:07:46;;;;;;;4.30;1.30;;;;;;;;;;12484891;23;20031;-74
2024/02/19 06:12:50;;;;;;;2.60;1.20;;;;;;;;;;12485840;23;20062;-74
2024/02/19 06:17:55;;;;;;;4.57;1.45;;;;;;;;;;12493920;23;20091;-73
2024/02/19 06:22:59;;;;;;;5.88;1.70;;;;;;;;;;12489480;23;20023;-74
2024/02/19 06:28:03;;;;;;;4.00;1.48;;;;;;;;;;12506038;23;20019;-74
2024/02/19 06:33:08;;;;;;;5.00;2.03;;;;;;;;;;12484304;23;20027;-73
2024/02/19 06:38:11;;;;;;;5.15;1.90;;;;;;;;;;12485328;23;20030;-74
2024/02/19 06:43:15;;;;;;;6.65;1.90;;;;;;;;;;12503019;23;20512;-74
2024/02/19 06:48:20;;;;;;;6.05;1.58;;;;;;;;;;12485666;23;20027;-73
2024/02/19 06:53:24;;;;;;;8.38;1.95;;;;;;;;;;12502890;23;20050;-74
2024/02/19 06:58:27;;;;;;;7.30;1.63;;;;;;;;;;12482089;23;20079;-73
2024/02/19 07:03:32;;;;;;;4.95;1.52;;;;;;;;;;12500486;23;20082;-74
2024/02/19 07:08:38;;;;;;;3.95;1.33;;;;;;;;;;12500986;23;20035;-74
2024/02/19 07:13:41;;;;;;;5.63;1.70;;;;;;;;;;12500263;23;20098;-74
2024/02/19 07:18:46;;;;;;;4.90;1.50;;;;;;;;;;12483950;23;20361;-73
2024/02/19 07:23:50;;;;;;;7.38;2.58;;;;;;;;;;12500109;23;20355;-74
2024/02/19 07:28:53;;;;;;;6.50;2.60;;;;;;;;;;12500306;23;20059;-73
2024/02/19 07:33:59;;;;;;;6.40;2.88;;;;;;;;;;12484502;23;20031;-73
2024/02/19 07:39:03;;;;;;;4.60;2.50;;;;;;;;;;12485001;23;20057;-73
2024/02/19 07:44:07;;;;;;;7.63;4.15;;;;;;;;;;12499681;23;20449;-73
2024/02/19 07:49:11;;;;;;;12.50;5.63;;;;;;;;;;12499286;23;20035;-74
2024/02/19 07:54:15;;;;;;;22.08;10.02;;;;;;;;;;12481719;23;20023;-74
2024/02/19 07:59:19;;;;;;;20.67;8.95;;;;;;;;;;12483281;23;20035;-73
2024/02/19 08:04:27;;;;;;;13.73;6.95;;;;;;;;;;12496669;23;20035;-74
2024/02/19 08:09:31;;;;;;;10.25;4.18;;;;;;;;;;12497398;23;20086;-74
2024/02/19 08:14:35;;;;;;;4.68;1.85;;;;;;;;;;12481836;23;20038;-73
2024/02/19 08:19:40;;;;;;;5.15;1.65;;;;;;;;;;12495900;23;20027;-74
2024/02/19 08:24:43;;;;;;;5.05;1.52;;;;;;;;;;12495928;23;20027;-74
2024/02/19 08:29:46;;;;;;;4.22;1.35;;;;;;;;;;12493883;23;20737;-74
2024/02/19 08:34:51;;;;;;;3.25;1.10;;;;;;;;;;12494886;23;20038;-73
2024/02/19 08:39:54;;;;;;;3.63;1.10;;;;;;;;;;12494242;23;20027;-74
2024/02/19 08:44:58;;;;;;;5.55;1.40;;;;;;;;;;12494937;23;20023;-74
2024/02/19 08:50:04;;;;;;;5.05;1.10;;;;;;;;;;12493858;23;20031;-73
2024/02/19 08:55:09;;;;;;;4.25;1.58;;;;;;;;;;12493578;23;20027;-73
2024/02/19 09:00:13;;;;;;;3.55;1.17;;;;;;;;;;12492280;23;20503;-73
2024/02/19 09:05:19;;;;;;;3.95;0.90;;;;;;;;;;12491326;23;20030;-73
2024/02/19 09:10:23;;;;;;;2.95;1.38;;;;;;;;;;12489533;23;20122;-73
2024/02/19 09:15:26;;;;;;;4.78;1.08;;;;;;;;;;12480009;23;20488;-73
2024/02/19 09:20:31;;;;;;;1.55;0.93;;;;;;;;;;12482163;23;20463;-73
2024/02/19 09:25:34;;;;;;;3.63;1.38;;;;;;;;;;12481387;23;20118;-73
2024/02/19 09:30:38;;;;;;;2.00;1.08;;;;;;;;;;12491195;23;20027;-74
2024/02/19 09:35:43;;;;;;;4.20;1.23;;;;;;;;;;12490868;23;20031;-73
2024/02/19 09:40:49;;;;;;;3.03;1.15;;;;;;;;;;12491957;23;20098;-73
2024/02/19 09:45:52;;;;;;;4.68;1.38;;;;;;;;;;12486206;23;20031;-73
2024/02/19 09:51:00;;;;;;;2.95;1.20;;;;;;;;;;12488940;23;20215;-73
2024/02/19 09:56:06;;;;;;;4.07;1.48;;;;;;;;;;12495799;23;20031;-73
2024/02/19 10:01:10;;;;;;;5.65;1.35;;;;;;;;;;12499342;23;20027;-73
2024/02/19 10:06:14;;;;;;;5.47;1.50;;;;;;;;;;12491102;23;20595;-73
2024/02/19 10:11:18;;;;;;;3.90;1.30;;;;;;;;;;12494622;23;20029;-73
2024/02/19 10:16:21;;;;;;;2.97;1.30;;;;;;;;;;12482876;23;20106;-73
2024/02/19 10:21:26;;;;;;;5.57;1.40;;;;;;;;;;12484289;23;20027;-73
2024/02/19 10:26:29;;;;;;;1.80;0.85;;;;;;;;;;12491527;23;20106;-73
2024/02/19 10:31:32;;;;;;;5.20;1.27;;;;;;;;;;12491030;23;20505;-73
2024/02/19 10:36:37;;;;;;;5.45;1.55;;;;;;;;;;12483970;23;20106;-73
2024/02/19 10:41:41;;;;;;;5.13;1.50;;;;;;;;;;12485073;23;20131;-73
2024/02/19 10:46:44;;;;;;;5.18;1.50;;;;;;;;;;12489833;23;20431;-73
2024/02/19 10:51:49;;;;;;;5.72;1.48;;;;;;;;;;12489020;23;20408;-73
2024/02/19 10:56:53;;;;;;;5.15;1.50;;;;;;;;;;12488623;23;20058;-74
2024/02/19 11:02:08;;;;;;;6.00;1.63;;;;;;;;;;12486441;23;20023;-73
2024/02/19 11:07:13;;;;;;;5.63;1.75;;;;;;;;;;12482785;23;20038;-73
2024/02/19 11:12:18;;;;;;;4.25;1.48;;;;;;;;;;12480857;23;20413;-72
2024/02/19 11:17:23;;;;;;;5.22;1.50;;;;;;;;;;12481186;23;20520;-73
2024/02/19 11:22:30;;;;;;;7.32;1.70;;;;;;;;;;12486385;23;20532;-73
2024/02/19 11:27:34;;;;;;;4.03;1.30;;;;;;;;;;12483939;23;20031;-72
2024/02/19 11:32:38;;;;;;;6.85;2.03;;;;;;;;;;12483300;23;20094;-73
2024/02/19 11:37:45;;;;;;;7.03;1.90;;;;;;;;;;12484841;23;20039;-72
2024/02/19 11:42:49;;;;;;;6.38;1.80;;;;;;;;;;12483671;23;20085;-72
2024/02/19 11:47:52;;;;;;;6.28;1.80;;;;;;;;;;12483785;23;20105;-72
2024/02/19 11:52:58;;;;;;;5.47;1.70;;;;;;;;;;12483896;23;20015;-72
2024/02/19 11:58:01;;;;;;;;;;;;;;;;;;12502922;23;20106;-72
2024/02/19 12:03:05;;;;;;;5.20;1.83;;;;;;;;;;12501709;23;19949;-72
2024/02/19 12:08:10;;;;;;;2.67;1.27;;;;;;;;;;12483250;23;20349;-72
2024/02/19 12:13:13;;;;;;;5.10;1.48;;;;;;;;;;12501174;23;20054;-72
2024/02/19 12:18:17;;;;;;;4.75;1.65;;;;;;;;;;12501532;23;20110;-72
2024/02/19 12:23:21;;;;;;;4.65;1.75;;;;;;;;;;12482125;23;20038;-72
2024/02/19 12:28:25;;;;;;;7.40;1.80;;;;;;;;;;12483656;23;20050;-72
2024/02/19 12:33:28;;;;;;;8.35;2.30;;;;;;;;;;12499374;23;20034;-72
2024/02/19 12:38:33;;;;;;;9.23;2.47;;;;;;;;;;12499890;23;20474;-72
2024/02/19 12:43:36;;;;;;;5.53;1.65;;;;;;;;;;12483502;23;20019;-72
2024/02/19 12:48:41;;;;;;;6.35;2.42;;;;;;;;;;12499107;23;20554;-73
2024/02/19 12:53:46;;;;;;;3.67;1.90;;;;;;;;;;12498415;23;20725;-72
2024/02/19 12:58:49;;;;;;;9.90;2.60;;;;;;;;;;12480000;23;20023;-72
2024/02/19 13:03:53;;;;;;;6.70;2.42;;;;;;;;;;12482856;23;20031;-72
2024/02/19 13:08:58;;;;;;;9.20;2.65;;;;;;;;;;12497748;23;20034;-72
2024/02/19 13:14:02;;;;;;;4.13;2.17;;;;;;;;;;12497748;23;20053;-72
2024/02/19 13:19:06;;;;;;;9.95;2.70;;;;;;;;;;12497284;23;20324;-72
2024/02/19 13:24:11;;;;;;;6.63;2.53;;;;;;;;;;12496829;23;20027;-72
2024/02/19 13:29:14;;;;;;;8.02;2.83;;;;;;;;;;12496361;23;20046;-72
2024/02/19 13:34:18;;;;;;;6.47;2.60;;;;;;;;;;12501364;23;20416;-72
2024/02/19 13:39:25;;;;;;;8.55;2.90;;;;;;;;;;12485029;23;20093;-72
2024/02/19 13:44:28;;;;;;;8.02;2.60;;;;;;;;;;12481202;23;20047;-72
2024/02/19 13:49:31;;;;;;;7.63;2.40;;;;;;;;;;12496027;23;20038;-72
2024/02/19 13:54:36;;;;;;;5.55;2.75;;;;;;;;;;12495262;23;20039;-72
2024/02/19 13:59:40;;;;;;;7.05;2.70;;;;;;;;;;12494191;23;20027;-72
2024/02/19 14:04:43;;;;;;;7.93;2.60;;;;;;;;;;12494297;23;20114;-72
2024/02/19 14:09:48;;;;;;;6.45;2.40;;;;;;;;;;12494069;23;20102;-72
2024/02/19 14:14:51;;;;;;;6.35;2.63;;;;;;;;;;12490930;23;20055;-72
2024/02/19 14:19:54;;;;;;;8.40;2.40;;;;;;;;;;12491989;23;20134;-72
2024/02/19 14:24:59;;;;;;;6.97;2.45;;;;;;;;;;12492566;23;20056;-72
2024/02/19 14:30:03;;;;;;;5.40;2.45;;;;;;;;;;12494848;23;20400;-72
2024/02/19 14:35:08;;;;;;;6.30;2.42;;;;;;;;;;12494854;23;20029;-72
2024/02/19 14:40:13;;;;;;;7.57;2.92;;;;;;;;;;12484474;23;20035;-72
2024/02/19 14:45:18;;;;;;;7.35;2.58;;;;;;;;;;12484603;23;20082;-73
2024/02/19 14:50:22;;;;;;;6.88;2.20;;;;;;;;;;12482810;23;20543;-73
2024/02/19 14:55:26;;;;;;;3.88;2.03;;;;;;;;;;12493442;23;20074;-72
2024/02/19 15:00:31;;;;;;;5.07;1.60;;;;;;;;;;12480552;23;20214;-72
2024/02/19 15:05:34;;;;;;;5.35;2.42;;;;;;;;;;12492019;23;20046;-73
2024/02/19 15:10:39;;;;;;;6.82;2.63;;;;;;;;;;12492146;23;20031;-72
2024/02/19 15:15:42;;;;;;;5.18;2.05;;;;;;;;;;12491521;23;20384;-72
2024/02/19 15:20:47;;;;;;;5.38;2.50;;;;;;;;;;12488210;23;20031;-72
2024/02/19 15:25:52;;;;;;;3.08;1.50;;;;;;;;;;12488952;23;20603;-72
2024/02/19 15:30:55;;;;;;;4.72;2.28;;;;;;;;;;12477742;23;20050;-73
2024/02/19 15:35:59;;;;;;;4.88;2.58;;;;;;;;;;12488815;23;20050;-72
2024/02/19 15:41:09;;;;;;;3.80;2.03;;;;;;;;;;12487916;23;20483;-72
2024/02/19 15:46:14;;;;;;;4.53;2.05;;;;;;;;;;12487886;23;20039;-72
2024/02/19 15:51:17;;;;;;;5.80;2.33;;;;;;;;;;12481074;23;20486;-72
2024/02/19 15:56:22;;;;;;;5.85;1.95;;;;;;;;;;12487265;23;20507;-72
2024/02/19 16:01:25;;;;;;;4.22;1.85;;;;;;;;;;12485890;23;20031;-72
2024/02/19 16:06:31;;;;;;;9.30;2.90;;;;;;;;;;12486410;23;20488;-72
2024/02/19 16:11:35;;;;;;;9.52;3.38;;;;;;;;;;12485159;23;20102;-72
2024/02/19 16:16:38;;;;;;;4.63;2.35;;;;;;;;;;12484449;23;20053;-73
2024/02/19 16:21:42;;;;;;;4.13;1.88;;;;;;;;;;12484297;23;20555;-72
2024/02/19 16:26:46;;;;;;;4.07;1.83;;;;;;;;;;12482653;23;20068;-72
2024/02/19 16:31:50;;;;;;;6.30;2.50;;;;;;;;;;12481499;23;20106;-72
2024/02/19 16:36:53;;;;;;;7.75;2.65;;;;;;;;;;12477273;23;20122;-72
2024/02/19 16:41:58;;;;;;;5.80;2.65;;;;;;;;;;12482566;23;20023;-72
2024/02/19 16:47:01;;;;;;;2.83;1.92;;;;;;;;;;12479453;23;20115;-72
2024/02/19 16:52:05;;;;;;;5.70;2.25;;;;;;;;;;12482476;23;20027;-73
2024/02/19 16:57:09;;;;;;;4.53;2.40;;;;;;;;;;12479661;23;20087;-72
2024/02/19 17:02:13;;;;;;;7.43;3.47;;;;;;;;;;12479874;23;20392;-72
2024/02/19 17:07:18;;;;;;;5.10;2.80;;;;;;;;;;12482405;23;20181;-72
2024/02/19 17:12:23;;;;;;;5.80;3.08;;;;;;;;;;12502582;23;20027;-74
2024/02/19 17:17:26;;;;;;;3.75;2.42;;;;;;;;;;12480532;23;20052;-74
2024/02/19 17:22:30;;;;;;;5.05;2.53;;;;;;;;;;12481230;23;20032;-74
2024/02/19 17:27:34;;;;;;;6.13;2.10;;;;;;;;;;12481162;23;20027;-74
2024/02/19 17:32:38;;;;;;;6.60;2.85;;;;;;;;;;12478615;23;20027;-73
2024/02/19 17:37:41;;;;;;;5.70;2.70;;;;;;;;;;12479351;23;20027;-73
2024/02/19 17:42:47;;;;;;;10.23;3.20;;;;;;;;;;12479740;23;20494;-73
2024/02/19 17:47:51;;;;;;;4.68;2.70;;;;;;;;;;12479631;23;20027;-73
2024/02/19 17:52:54;;;;;;;4.95;3.33;;;;;;;;;;12480462;23;20637;-73
2024/02/19 17:57:59;;;;;;;5.90;3.00;;;;;;;;;;12480311;23;20027;-73
2024/02/19 18:03:02;;;;;;;3.92;2.30;;;;;;;;;;12484025;23;20031;-74
2024/02/19 18:08:06;;;;;;;4.20;2.17;;;;;;;;;;12506226;23;20027;-74
2024/02/19 18:13:11;;;;;;;5.80;2.40;;;;;;;;;;12481708;23;20023;-74
2024/02/19 18:18:15;;;;;;;5.47;2.30;;;;;;;;;;12497186;23;20461;-74
2024/02/19 18:23:21;;;;;;;4.30;1.75;;;;;;;;;;12500774;23;20472;-74
2024/02/19 18:28:27;;;;;;;4.40;1.70;;;;;;;;;;12501753;23;20023;-74
2024/02/19 18:33:31;;;;;;;2.25;1.38;;;;;;;;;;12483363;23;20028;-73
2024/02/19 18:38:37;;;;;;;3.92;1.90;;;;;;;;;;12482182;23;20038;-74
2024/02/19 18:43:41;;;;;;;3.47;1.92;;;;;;;;;;12498884;23;20391;-74
2024/02/19 18:48:45;;;;;;;2.45;1.23;;;;;;;;;;12496849;23;20478;-74
2024/02/19 18:53:49;;;;;;;2.70;1.60;;;;;;;;;;12482233;23;20037;-73
2024/02/19 18:58:54;;;;;;;2.63;1.13;;;;;;;;;;12497666;23;20027;-73
2024/02/19 19:03:57;;;;;;;2.92;1.30;;;;;;;;;;12483520;23;20118;-73
2024/02/19 19:09:05;;;;;;;2.33;1.15;;;;;;;;;;12497121;23;20091;-73
2024/02/19 19:14:12;;;;;;;1.33;1.00;;;;;;;;;;12479065;23;20539;-73
2024/02/19 19:19:16;;;;;;;2.25;0.90;;;;;;;;;;12494875;23;20027;-73
2024/02/19 19:24:19;;;;;;;1.33;0.90;;;;;;;;;;12495248;23;20376;-73
2024/02/19 19:29:24;;;;;;;2.13;1.00;;;;;;;;;;12495238;23;20102;-73
2024/02/19 19:34:27;;;;;;;1.65;0.75;;;;;;;;;;12498137;23;20034;-73
2024/02/19 19:39:30;;;;;;;1.40;1.17;;;;;;;;;;12481126;23;20063;-73
2024/02/19 19:44:36;;;;;;;5.82;3.38;;;;;;;;;;12497710;23;20031;-72
2024/02/19 19:49:39;;;;;;;5.70;2.77;;;;;;;;;;12506433;23;20039;-73
2024/02/19 19:54:43;;;;;;;4.22;1.40;;;;;;;;;;12484616;23;20027;-73
2024/02/19 19:59:49;;;;;;;3.83;2.08;;;;;;;;;;12495963;23;20117;-73
2024/02/19 20:04:53;;;;;;;2.90;1.60;;;;;;;;;;12495011;23;20110;-73
2024/02/19 20:09:59;;;;;;;3.35;1.35;;;;;;;;;;12504815;23;20573;-73
2024/02/19 20:15:04;;;;;;;1.98;1.20;;;;;;;;;;12493938;23;20476;-73
2024/02/19 20:20:09;;;;;;;2.75;1.80;;;;;;;;;;12483199;23;20535;-73
2024/02/19 20:25:13;;;;;;;4.70;4.05;;;;;;;;;;12483233;23;20031;-73
2024/02/19 20:30:18;;;;;;;3.25;2.75;;;;;;;;;;12493317;23;20469;-73
2024/02/19 20:35:21;;;;;;;3.92;1.80;;;;;;;;;;12493399;23;20027;-73
2024/02/19 20:40:24;;;;;;;2.38;1.90;;;;;;;;;;12480564;23;20271;-73
2024/02/19 20:45:29;;;;;;;2.70;1.13;;;;;;;;;;12500697;23;20043;-73
2024/02/19 20:50:32;;;;;;;1.77;1.42;;;;;;;;;;12485369;23;20030;-73
2024/02/19 20:55:36;;;;;;;0.80;0.73;;;;;;;;;;12491815;23;20035;-73
2024/02/19 21:00:40;;;;;;;2.78;1.27;;;;;;;;;;12491450;23;20415;-73
2024/02/19 21:05:44;;;;;;;1.92;1.25;;;;;;;;;;12482146;23;20023;-73
2024/02/19 21:10:48;;;;;;;4.47;1.48;;;;;;;;;;12484005;23;20054;-73
2024/02/19 21:15:52;;;;;;;2.20;1.42;;;;;;;;;;12482790;23;20510;-73
2024/02/19 21:20:57;;;;;;;1.37;1.20;;;;;;;;;;12490802;23;20027;-73
2024/02/19 21:26:00;;;;;;;3.33;1.45;;;;;;;;;;12490252;23;20293;-73
2024/02/19 21:31:05;;;;;;;2.75;1.55;;;;;;;;;;12488954;23;20031;-73
2024/02/19 21:36:09;;;;;;;3.08;1.63;;;;;;;;;;12480403;23;20103;-73
2024/02/19 21:41:12;;;;;;;4.40;1.52;;;;;;;;;;12489322;23;20031;-73
2024/02/19 21:46:16;;;;;;;4.13;1.88;;;;;;;;;;12488436;23;20645;-73
2024/02/19 21:51:20;;;;;;;1.88;1.20;;;;;;;;;;12482387;23;20054;-73
2024/02/19 21:56:23;;;;;;;1.90;1.20;;;;;;;;;;12481803;23;20046;-73
2024/02/19 22:01:28;;;;;;;3.53;2.15;;;;;;;;;;12482764;23;20102;-73
2024/02/19 22:06:31;;;;;;;5.90;2.65;;;;;;;;;;12488276;23;20023;-73
2024/02/19 22:11:35;;;;;;;5.00;1.77;;;;;;;;;;12482521;23;20024;-73
2024/02/19 22:16:40;;;;;;;2.17;1.40;;;;;;;;;;12486725;23;20030;-73
2024/02/19 22:21:43;;;;;;;5.28;2.90;;;;;;;;;;12480952;23;20110;-73
2024/02/19 22:26:47;;;;;;;6.43;2.13;;;;;;;;;;12486616;23;20031;-73
2024/02/19 22:31:52;;;;;;;6.00;2.70;;;;;;;;;;12485564;23;20038;-73
2024/02/19 22:36:57;;;;;;;8.20;2.78;;;;;;;;;;12485779;23;20027;-73
2024/02/19 22:42:01;;;;;;;8.17;2.70;;;;;;;;;;12481371;23;20083;-73
2024/02/19 22:47:07;;;;;;;11.15;3.22;;;;;;;;;;12485973;23;20050;-73
2024/02/19 22:52:10;;;;;;;10.75;2.88;;;;;;;;;;12487874;23;20482;-73
2024/02/19 22:57:13;;;;;;;7.35;2.67;;;;;;;;;;12483473;23;20024;-73
2024/02/19 23:02:18;;;;;;;14.90;4.53;;;;;;;;;;12483294;23;20031;-73
2024/02/19 23:07:22;;;;;;;10.07;3.80;;;;;;;;;;12486976;23;20066;-73
2024/02/19 23:12:25;;;;;;;18.30;5.10;;;;;;;;;;12486807;23;20106;-73
2024/02/19 23:17:31;;;;;;;10.25;3.08;;;;;;;;;;12486340;23;20098;-73
2024/02/19 23:22:34;;;;;;;11.97;3.30;;;;;;;;;;12485633;23;20345;-73
2024/02/19 23:27:38;;;;;;;6.82;2.95;;;;;;;;;;12483565;23;20098;-73
2024/02/19 23:32:42;;;;;;;18.50;4.35;;;;;;;;;;12485039;23;20047;-73
2024/02/19 23:37:46;;;;;;;13.70;3.25;;;;;;;;;;12484826;23;20024;-73
2024/02/19 23:42:49;;;;;;;17.15;3.85;;;;;;;;;;12484784;23;20038;-73
2024/02/19 23:47:53;;;;;;;9.80;3.60;;;;;;;;;;12484519;23;20098;-73
2024/02/19 23:52:57;;;;;;;15.23;4.60;;;;;;;;;;12484061;23;20110;-73
2024/02/19 23:58:00;;;;;;;15.55;3.85;;;;;;;;;;12503464;23;20102;-73
